Pine Bluffs, Wyoming
Current Conditions -  °F | °C
As of 4:35 PM on Saturday 22 Nov 2014 (Local Time) from K82V Reporting Station
Overcast Overcast  
Wind Chill: 44°   Ceiling: 11000
Heat Index: 46°   Visibility: 10mi
Dew Point: 18°   Wind: 5mph
Humidity: 32%   Direction: 230°SW
Pressure: 29.59"   Gusts: NA
Location:  41.18°N, 104.07°W
Report Text: K82V 222335Z AUTO 23004KT 10SM OVC110 08/M08 A2959 RMK AO2
Loading
Personal Weather Stations






























Interactive Weather Map New forecast layout! Learn more

10-Day Weather Forecast

Advertisements
Track Severe Weather on mobile